sensor_id;sensor_type;location;lat;lon;timestamp;P1;durP1;ratioP1;P2;durP2;ratioP2
19969;SDS011;10146;47.754;9.566;2022-11-15T00:01:32;8.18;;;7.35;;
19969;SDS011;10146;47.754;9.566;2022-11-15T00:03:58;7.30;;;6.60;;
19969;SDS011;10146;47.754;9.566;2022-11-15T00:06:23;7.40;;;6.70;;
19969;SDS011;10146;47.754;9.566;2022-11-15T00:08:49;8.20;;;6.75;;
19969;SDS011;10146;47.754;9.566;2022-11-15T00:11:14;7.13;;;6.30;;
19969;SDS011;10146;47.754;9.566;2022-11-15T00:13:40;7.30;;;6.60;;
19969;SDS011;10146;47.754;9.566;2022-11-15T00:16:06;7.43;;;6.65;;
19969;SDS011;10146;47.754;9.566;2022-11-15T00:18:32;7.18;;;6.30;;
19969;SDS011;10146;47.754;9.566;2022-11-15T00:21:02;6.65;;;6.15;;
19969;SDS011;10146;47.754;9.566;2022-11-15T00:23:30;6.57;;;5.97;;
19969;SDS011;10146;47.754;9.566;2022-11-15T00:25:58;7.05;;;6.35;;
19969;SDS011;10146;47.754;9.566;2022-11-15T00:28:25;7.47;;;6.78;;
19969;SDS011;10146;47.754;9.566;2022-11-15T00:30:50;7.45;;;6.63;;
19969;SDS011;10146;47.754;9.566;2022-11-15T00:33:16;6.95;;;6.25;;
19969;SDS011;10146;47.754;9.566;2022-11-15T00:35:42;7.32;;;6.72;;
19969;SDS011;10146;47.754;9.566;2022-11-15T00:38:08;7.55;;;6.85;;
19969;SDS011;10146;47.754;9.566;2022-11-15T00:40:34;8.23;;;7.43;;
19969;SDS011;10146;47.754;9.566;2022-11-15T00:42:59;6.95;;;6.30;;
19969;SDS011;10146;47.754;9.566;2022-11-15T00:45:25;7.18;;;6.57;;
19969;SDS011;10146;47.754;9.566;2022-11-15T00:47:51;7.25;;;6.55;;
19969;SDS011;10146;47.754;9.566;2022-11-15T00:50:17;7.70;;;6.95;;
19969;SDS011;10146;47.754;9.566;2022-11-15T00:52:43;8.07;;;7.28;;
19969;SDS011;10146;47.754;9.566;2022-11-15T00:55:18;8.15;;;7.43;;
19969;SDS011;10146;47.754;9.566;2022-11-15T00:57:44;8.32;;;6.40;;
19969;SDS011;10146;47.754;9.566;2022-11-15T01:00:11;7.00;;;6.40;;
19969;SDS011;10146;47.754;9.566;2022-11-15T01:02:37;7.22;;;6.53;;
19969;SDS011;10146;47.754;9.566;2022-11-15T01:05:03;7.57;;;6.88;;
19969;SDS011;10146;47.754;9.566;2022-11-15T01:07:29;6.80;;;6.13;;
19969;SDS011;10146;47.754;9.566;2022-11-15T01:09:54;7.50;;;6.53;;
19969;SDS011;10146;47.754;9.566;2022-11-15T01:12:20;6.30;;;5.70;;
19969;SDS011;10146;47.754;9.566;2022-11-15T01:14:45;6.25;;;5.75;;
19969;SDS011;10146;47.754;9.566;2022-11-15T01:17:11;7.15;;;6.45;;
19969;SDS011;10146;47.754;9.566;2022-11-15T01:19:37;7.03;;;6.32;;
19969;SDS011;10146;47.754;9.566;2022-11-15T01:22:02;6.60;;;6.00;;
19969;SDS011;10146;47.754;9.566;2022-11-15T01:24:28;6.43;;;5.93;;
19969;SDS011;10146;47.754;9.566;2022-11-15T01:26:53;6.95;;;6.25;;
19969;SDS011;10146;47.754;9.566;2022-11-15T01:29:19;6.38;;;5.78;;
19969;SDS011;10146;47.754;9.566;2022-11-15T01:31:44;5.60;;;5.13;;
19969;SDS011;10146;47.754;9.566;2022-11-15T01:34:10;6.38;;;5.65;;
19969;SDS011;10146;47.754;9.566;2022-11-15T01:36:36;5.70;;;5.13;;
19969;SDS011;10146;47.754;9.566;2022-11-15T01:39:02;6.63;;;6.10;;
19969;SDS011;10146;47.754;9.566;2022-11-15T01:41:28;6.85;;;5.53;;
19969;SDS011;10146;47.754;9.566;2022-11-15T01:44:25;6.07;;;5.57;;
19969;SDS011;10146;47.754;9.566;2022-11-15T01:47:12;5.90;;;5.40;;
19969;SDS011;10146;47.754;9.566;2022-11-15T01:49:58;6.18;;;5.68;;
19969;SDS011;10146;47.754;9.566;2022-11-15T01:52:27;6.55;;;5.95;;
19969;SDS011;10146;47.754;9.566;2022-11-15T01:55:03;5.95;;;5.45;;
19969;SDS011;10146;47.754;9.566;2022-11-15T01:57:37;5.82;;;5.32;;
19969;SDS011;10146;47.754;9.566;2022-11-15T02:00:05;6.38;;;5.43;;
19969;SDS011;10146;47.754;9.566;2022-11-15T02:02:32;5.97;;;5.32;;
19969;SDS011;10146;47.754;9.566;2022-11-15T02:04:58;5.85;;;5.28;;
19969;SDS011;10146;47.754;9.566;2022-11-15T02:07:24;6.10;;;5.43;;
19969;SDS011;10146;47.754;9.566;2022-11-15T02:09:50;6.65;;;5.80;;
19969;SDS011;10146;47.754;9.566;2022-11-15T02:12:19;6.75;;;6.07;;
19969;SDS011;10146;47.754;9.566;2022-11-15T02:14:47;7.07;;;6.25;;
19969;SDS011;10146;47.754;9.566;2022-11-15T02:29:05;6.18;;;5.68;;
19969;SDS011;10146;47.754;9.566;2022-11-15T02:31:36;6.22;;;5.70;;
19969;SDS011;10146;47.754;9.566;2022-11-15T02:37:04;6.45;;;5.85;;
19969;SDS011;10146;47.754;9.566;2022-11-15T02:39:40;6.32;;;5.72;;
19969;SDS011;10146;47.754;9.566;2022-11-15T02:42:14;6.82;;;6.15;;
19969;SDS011;10146;47.754;9.566;2022-11-15T02:45:09;7.25;;;6.55;;
19969;SDS011;10146;47.754;9.566;2022-11-15T02:47:42;7.07;;;6.47;;
19969;SDS011;10146;47.754;9.566;2022-11-15T02:50:11;6.85;;;6.20;;
19969;SDS011;10146;47.754;9.566;2022-11-15T02:52:40;6.20;;;5.70;;
19969;SDS011;10146;47.754;9.566;2022-11-15T02:55:25;6.50;;;5.85;;
19969;SDS011;10146;47.754;9.566;2022-11-15T02:58:05;6.68;;;6.07;;
19969;SDS011;10146;47.754;9.566;2022-11-15T03:01:02;6.55;;;5.95;;
19969;SDS011;10146;47.754;9.566;2022-11-15T03:04:02;7.93;;;7.25;;
19969;SDS011;10146;47.754;9.566;2022-11-15T03:06:42;7.38;;;6.35;;
19969;SDS011;10146;47.754;9.566;2022-11-15T03:09:38;7.60;;;6.80;;
19969;SDS011;10146;47.754;9.566;2022-11-15T03:12:30;8.50;;;7.72;;
19969;SDS011;10146;47.754;9.566;2022-11-15T03:15:29;6.65;;;6.10;;
19969;SDS011;10146;47.754;9.566;2022-11-15T03:18:08;7.78;;;6.97;;
19969;SDS011;10146;47.754;9.566;2022-11-15T03:21:06;7.15;;;6.55;;
19969;SDS011;10146;47.754;9.566;2022-11-15T03:23:33;7.20;;;6.50;;
19969;SDS011;10146;47.754;9.566;2022-11-15T03:26:01;7.75;;;7.05;;
19969;SDS011;10146;47.754;9.566;2022-11-15T03:28:41;8.02;;;7.22;;
19969;SDS011;10146;47.754;9.566;2022-11-15T03:31:11;8.00;;;7.20;;
19969;SDS011;10146;47.754;9.566;2022-11-15T03:33:58;8.02;;;7.22;;
19969;SDS011;10146;47.754;9.566;2022-11-15T03:36:28;9.25;;;7.15;;
19969;SDS011;10146;47.754;9.566;2022-11-15T03:38:56;7.88;;;7.15;;
19969;SDS011;10146;47.754;9.566;2022-11-15T03:41:31;7.85;;;7.07;;
19969;SDS011;10146;47.754;9.566;2022-11-15T03:44:15;7.85;;;7.15;;
19969;SDS011;10146;47.754;9.566;2022-11-15T03:49:33;7.28;;;6.45;;
19969;SDS011;10146;47.754;9.566;2022-11-15T03:52:01;8.20;;;7.40;;
19969;SDS011;10146;47.754;9.566;2022-11-15T03:54:28;7.53;;;6.65;;
19969;SDS011;10146;47.754;9.566;2022-11-15T03:56:54;8.88;;;7.82;;
19969;SDS011;10146;47.754;9.566;2022-11-15T03:59:20;8.15;;;7.32;;
19969;SDS011;10146;47.754;9.566;2022-11-15T04:01:46;7.80;;;7.05;;
19969;SDS011;10146;47.754;9.566;2022-11-15T04:04:11;7.93;;;7.13;;
19969;SDS011;10146;47.754;9.566;2022-11-15T04:06:37;7.13;;;6.53;;
19969;SDS011;10146;47.754;9.566;2022-11-15T04:09:03;10.23;;;7.00;;
19969;SDS011;10146;47.754;9.566;2022-11-15T04:11:28;7.00;;;6.40;;
19969;SDS011;10146;47.754;9.566;2022-11-15T04:13:54;6.85;;;5.68;;
19969;SDS011;10146;47.754;9.566;2022-11-15T04:16:20;7.22;;;6.57;;
19969;SDS011;10146;47.754;9.566;2022-11-15T04:18:45;8.07;;;5.88;;
19969;SDS011;10146;47.754;9.566;2022-11-15T04:21:31;6.95;;;6.15;;
19969;SDS011;10146;47.754;9.566;2022-11-15T04:24:15;6.75;;;6.25;;
19969;SDS011;10146;47.754;9.566;2022-11-15T04:26:40;6.82;;;6.22;;
19969;SDS011;10146;47.754;9.566;2022-11-15T04:29:06;8.27;;;7.13;;
19969;SDS011;10146;47.754;9.566;2022-11-15T04:31:50;7.53;;;6.72;;
19969;SDS011;10146;47.754;9.566;2022-11-15T04:34:16;6.88;;;6.28;;
19969;SDS011;10146;47.754;9.566;2022-11-15T04:36:41;7.70;;;7.00;;
19969;SDS011;10146;47.754;9.566;2022-11-15T04:39:25;7.55;;;6.60;;
19969;SDS011;10146;47.754;9.566;2022-11-15T04:41:51;6.97;;;6.30;;
19969;SDS011;10146;47.754;9.566;2022-11-15T04:44:16;7.35;;;6.47;;
19969;SDS011;10146;47.754;9.566;2022-11-15T04:46:42;6.25;;;5.75;;
19969;SDS011;10146;47.754;9.566;2022-11-15T04:49:07;6.68;;;6.00;;
19969;SDS011;10146;47.754;9.566;2022-11-15T04:51:33;6.93;;;6.32;;
19969;SDS011;10146;47.754;9.566;2022-11-15T04:53:59;7.15;;;6.45;;
19969;SDS011;10146;47.754;9.566;2022-11-15T04:56:24;7.80;;;7.00;;
19969;SDS011;10146;47.754;9.566;2022-11-15T04:58:50;6.95;;;6.28;;
19969;SDS011;10146;47.754;9.566;2022-11-15T05:01:16;7.80;;;7.05;;
19969;SDS011;10146;47.754;9.566;2022-11-15T05:03:42;6.82;;;6.20;;
19969;SDS011;10146;47.754;9.566;2022-11-15T05:06:27;6.55;;;5.95;;
19969;SDS011;10146;47.754;9.566;2022-11-15T05:08:53;6.70;;;6.03;;
19969;SDS011;10146;47.754;9.566;2022-11-15T05:11:19;6.63;;;5.80;;
19969;SDS011;10146;47.754;9.566;2022-11-15T05:13:45;6.03;;;5.43;;
19969;SDS011;10146;47.754;9.566;2022-11-15T05:16:11;6.35;;;5.80;;
19969;SDS011;10146;47.754;9.566;2022-11-15T05:18:37;7.15;;;6.47;;
19969;SDS011;10146;47.754;9.566;2022-11-15T05:21:09;6.80;;;6.20;;
19969;SDS011;10146;47.754;9.566;2022-11-15T05:23:39;5.97;;;5.47;;
19969;SDS011;10146;47.754;9.566;2022-11-15T05:26:05;6.28;;;5.32;;
19969;SDS011;10146;47.754;9.566;2022-11-15T05:28:31;6.22;;;5.72;;
19969;SDS011;10146;47.754;9.566;2022-11-15T05:31:01;7.03;;;5.82;;
19969;SDS011;10146;47.754;9.566;2022-11-15T05:33:28;6.78;;;5.28;;
19969;SDS011;10146;47.754;9.566;2022-11-15T05:35:56;5.85;;;5.30;;
19969;SDS011;10146;47.754;9.566;2022-11-15T05:38:32;7.63;;;6.15;;
19969;SDS011;10146;47.754;9.566;2022-11-15T05:40:59;7.05;;;5.90;;
19969;SDS011;10146;47.754;9.566;2022-11-15T05:43:25;7.55;;;6.85;;
19969;SDS011;10146;47.754;9.566;2022-11-15T05:45:52;8.85;;;7.78;;
19969;SDS011;10146;47.754;9.566;2022-11-15T05:48:18;11.13;;;8.15;;
19969;SDS011;10146;47.754;9.566;2022-11-15T05:50:44;19.33;;;9.55;;
19969;SDS011;10146;47.754;9.566;2022-11-15T05:53:12;17.63;;;10.07;;
19969;SDS011;10146;47.754;9.566;2022-11-15T05:55:39;20.92;;;11.18;;
19969;SDS011;10146;47.754;9.566;2022-11-15T05:58:06;17.73;;;10.88;;
19969;SDS011;10146;47.754;9.566;2022-11-15T06:00:32;15.32;;;11.63;;
19969;SDS011;10146;47.754;9.566;2022-11-15T06:02:58;13.48;;;10.88;;
19969;SDS011;10146;47.754;9.566;2022-11-15T06:05:23;16.02;;;10.30;;
19969;SDS011;10146;47.754;9.566;2022-11-15T06:07:49;13.38;;;8.48;;
19969;SDS011;10146;47.754;9.566;2022-11-15T06:10:14;15.38;;;9.10;;
19969;SDS011;10146;47.754;9.566;2022-11-15T06:12:40;14.65;;;9.27;;
19969;SDS011;10146;47.754;9.566;2022-11-15T06:15:06;11.25;;;8.88;;
19969;SDS011;10146;47.754;9.566;2022-11-15T06:17:32;12.65;;;9.18;;
19969;SDS011;10146;47.754;9.566;2022-11-15T06:19:57;12.07;;;8.02;;
19969;SDS011;10146;47.754;9.566;2022-11-15T06:22:23;13.18;;;8.32;;
19969;SDS011;10146;47.754;9.566;2022-11-15T06:24:48;12.13;;;8.57;;
19969;SDS011;10146;47.754;9.566;2022-11-15T06:27:14;13.23;;;8.82;;
19969;SDS011;10146;47.754;9.566;2022-11-15T06:29:39;14.07;;;8.98;;
19969;SDS011;10146;47.754;9.566;2022-11-15T06:32:05;11.32;;;7.70;;
19969;SDS011;10146;47.754;9.566;2022-11-15T06:34:31;13.38;;;8.18;;
19969;SDS011;10146;47.754;9.566;2022-11-15T06:36:56;14.45;;;8.15;;
19969;SDS011;10146;47.754;9.566;2022-11-15T06:39:22;21.70;;;9.30;;
19969;SDS011;10146;47.754;9.566;2022-11-15T06:41:47;26.25;;;10.18;;
19969;SDS011;10146;47.754;9.566;2022-11-15T06:44:13;30.65;;;11.27;;
19969;SDS011;10146;47.754;9.566;2022-11-15T06:46:39;45.97;;;13.88;;
19969;SDS011;10146;47.754;9.566;2022-11-15T06:49:04;37.15;;;12.52;;
19969;SDS011;10146;47.754;9.566;2022-11-15T06:51:30;59.03;;;15.48;;
19969;SDS011;10146;47.754;9.566;2022-11-15T06:53:55;38.83;;;14.32;;
19969;SDS011;10146;47.754;9.566;2022-11-15T06:56:21;43.40;;;13.77;;
19969;SDS011;10146;47.754;9.566;2022-11-15T06:58:46;28.83;;;13.50;;
19969;SDS011;10146;47.754;9.566;2022-11-15T07:01:12;41.63;;;14.70;;
19969;SDS011;10146;47.754;9.566;2022-11-15T07:03:39;54.95;;;16.40;;
19969;SDS011;10146;47.754;9.566;2022-11-15T07:06:06;56.92;;;15.77;;
19969;SDS011;10146;47.754;9.566;2022-11-15T07:08:32;78.47;;;18.33;;
19969;SDS011;10146;47.754;9.566;2022-11-15T07:10:59;59.78;;;16.92;;
19969;SDS011;10146;47.754;9.566;2022-11-15T07:13:26;50.10;;;16.60;;
19969;SDS011;10146;47.754;9.566;2022-11-15T07:15:53;57.17;;;17.23;;
19969;SDS011;10146;47.754;9.566;2022-11-15T07:18:19;48.40;;;16.92;;
19969;SDS011;10146;47.754;9.566;2022-11-15T07:20:44;80.70;;;20.25;;
19969;SDS011;10146;47.754;9.566;2022-11-15T07:23:10;56.47;;;19.27;;
19969;SDS011;10146;47.754;9.566;2022-11-15T07:25:35;89.68;;;24.92;;
19969;SDS011;10146;47.754;9.566;2022-11-15T07:31:16;51.38;;;19.08;;
19969;SDS011;10146;47.754;9.566;2022-11-15T07:33:41;56.40;;;20.25;;
19969;SDS011;10146;47.754;9.566;2022-11-15T07:36:07;70.03;;;20.58;;
19969;SDS011;10146;47.754;9.566;2022-11-15T07:38:33;41.45;;;17.10;;
19969;SDS011;10146;47.754;9.566;2022-11-15T07:41:01;49.60;;;18.10;;
19969;SDS011;10146;47.754;9.566;2022-11-15T07:43:28;34.50;;;17.20;;
19969;SDS011;10146;47.754;9.566;2022-11-15T07:45:54;38.15;;;15.77;;
19969;SDS011;10146;47.754;9.566;2022-11-15T07:48:20;47.25;;;16.58;;
19969;SDS011;10146;47.754;9.566;2022-11-15T07:50:46;62.72;;;18.23;;
19969;SDS011;10146;47.754;9.566;2022-11-15T07:53:12;36.75;;;15.40;;
19969;SDS011;10146;47.754;9.566;2022-11-15T07:55:39;39.13;;;15.82;;
19969;SDS011;10146;47.754;9.566;2022-11-15T07:58:06;32.00;;;13.90;;
19969;SDS011;10146;47.754;9.566;2022-11-15T08:00:35;35.10;;;14.18;;
19969;SDS011;10146;47.754;9.566;2022-11-15T08:03:03;49.45;;;16.02;;
19969;SDS011;10146;47.754;9.566;2022-11-15T08:05:30;43.90;;;14.15;;
19969;SDS011;10146;47.754;9.566;2022-11-15T08:07:56;47.10;;;13.05;;
19969;SDS011;10146;47.754;9.566;2022-11-15T08:10:22;74.50;;;15.93;;
19969;SDS011;10146;47.754;9.566;2022-11-15T08:12:47;15.68;;;11.60;;
19969;SDS011;10146;47.754;9.566;2022-11-15T08:15:13;22.80;;;10.43;;
19969;SDS011;10146;47.754;9.566;2022-11-15T08:17:38;26.10;;;10.63;;
19969;SDS011;10146;47.754;9.566;2022-11-15T08:20:04;54.72;;;13.07;;
19969;SDS011;10146;47.754;9.566;2022-11-15T08:22:30;12.77;;;9.70;;
19969;SDS011;10146;47.754;9.566;2022-11-15T08:24:56;51.13;;;14.05;;
19969;SDS011;10146;47.754;9.566;2022-11-15T08:27:21;22.67;;;12.27;;
19969;SDS011;10146;47.754;9.566;2022-11-15T08:29:48;70.63;;;14.65;;
19969;SDS011;10146;47.754;9.566;2022-11-15T08:32:14;38.95;;;12.68;;
19969;SDS011;10146;47.754;9.566;2022-11-15T08:34:40;50.38;;;13.07;;
19969;SDS011;10146;47.754;9.566;2022-11-15T08:37:05;55.00;;;13.75;;
19969;SDS011;10146;47.754;9.566;2022-11-15T08:39:31;24.02;;;11.50;;
19969;SDS011;10146;47.754;9.566;2022-11-15T08:41:57;55.83;;;14.07;;
19969;SDS011;10146;47.754;9.566;2022-11-15T08:44:22;46.08;;;13.25;;
19969;SDS011;10146;47.754;9.566;2022-11-15T08:46:49;81.00;;;15.57;;
19969;SDS011;10146;47.754;9.566;2022-11-15T08:49:15;17.42;;;10.85;;
19969;SDS011;10146;47.754;9.566;2022-11-15T08:51:41;23.08;;;13.90;;
19969;SDS011;10146;47.754;9.566;2022-11-15T08:54:07;22.27;;;13.32;;
19969;SDS011;10146;47.754;9.566;2022-11-15T08:56:32;40.90;;;13.98;;
19969;SDS011;10146;47.754;9.566;2022-11-15T08:58:58;50.80;;;16.15;;
19969;SDS011;10146;47.754;9.566;2022-11-15T09:01:23;25.35;;;14.45;;
19969;SDS011;10146;47.754;9.566;2022-11-15T09:03:49;116.57;;;19.45;;
19969;SDS011;10146;47.754;9.566;2022-11-15T09:06:15;22.00;;;13.55;;
19969;SDS011;10146;47.754;9.566;2022-11-15T09:08:40;43.80;;;15.10;;
19969;SDS011;10146;47.754;9.566;2022-11-15T09:11:07;43.67;;;13.98;;
19969;SDS011;10146;47.754;9.566;2022-11-15T09:13:35;59.33;;;15.27;;
19969;SDS011;10146;47.754;9.566;2022-11-15T09:16:02;60.33;;;14.40;;
19969;SDS011;10146;47.754;9.566;2022-11-15T09:18:29;131.65;;;17.73;;
19969;SDS011;10146;47.754;9.566;2022-11-15T09:20:57;377.52;;;33.63;;
19969;SDS011;10146;47.754;9.566;2022-11-15T09:23:23;77.35;;;15.40;;
19969;SDS011;10146;47.754;9.566;2022-11-15T09:25:50;232.00;;;24.52;;
19969;SDS011;10146;47.754;9.566;2022-11-15T09:28:16;43.17;;;14.10;;
19969;SDS011;10146;47.754;9.566;2022-11-15T09:30:42;133.70;;;18.65;;
19969;SDS011;10146;47.754;9.566;2022-11-15T09:33:08;71.93;;;15.43;;
19969;SDS011;10146;47.754;9.566;2022-11-15T09:35:34;69.30;;;14.00;;
19969;SDS011;10146;47.754;9.566;2022-11-15T09:38:00;17.08;;;12.00;;
19969;SDS011;10146;47.754;9.566;2022-11-15T09:40:26;13.50;;;10.70;;
19969;SDS011;10146;47.754;9.566;2022-11-15T09:48:46;11.90;;;10.90;;
19969;SDS011;10146;47.754;9.566;2022-11-15T09:51:15;11.90;;;10.77;;
19969;SDS011;10146;47.754;9.566;2022-11-15T09:54:13;13.82;;;12.43;;
19969;SDS011;10146;47.754;9.566;2022-11-15T09:56:41;14.02;;;12.70;;
19969;SDS011;10146;47.754;9.566;2022-11-15T10:02:02;13.93;;;12.63;;
19969;SDS011;10146;47.754;9.566;2022-11-15T10:04:30;13.68;;;12.35;;
19969;SDS011;10146;47.754;9.566;2022-11-15T10:12:29;13.90;;;12.57;;
19969;SDS011;10146;47.754;9.566;2022-11-15T10:15:00;14.60;;;13.20;;
19969;SDS011;10146;47.754;9.566;2022-11-15T10:20:10;16.27;;;14.68;;
19969;SDS011;10146;47.754;9.566;2022-11-15T10:22:44;15.82;;;14.20;;
19969;SDS011;10146;47.754;9.566;2022-11-15T10:25:17;15.50;;;14.07;;
19969;SDS011;10146;47.754;9.566;2022-11-15T10:27:45;14.00;;;12.70;;
19969;SDS011;10146;47.754;9.566;2022-11-15T10:30:17;14.80;;;13.45;;
19969;SDS011;10146;47.754;9.566;2022-11-15T10:32:45;13.73;;;12.15;;
19969;SDS011;10146;47.754;9.566;2022-11-15T10:37:45;13.82;;;12.43;;
19969;SDS011;10146;47.754;9.566;2022-11-15T10:40:19;12.85;;;11.55;;
19969;SDS011;10146;47.754;9.566;2022-11-15T10:42:46;13.07;;;11.88;;
19969;SDS011;10146;47.754;9.566;2022-11-15T10:45:23;13.85;;;12.55;;
19969;SDS011;10146;47.754;9.566;2022-11-15T10:50:40;14.13;;;12.82;;
19969;SDS011;10146;47.754;9.566;2022-11-15T10:53:21;13.07;;;11.77;;
19969;SDS011;10146;47.754;9.566;2022-11-15T10:55:53;13.18;;;11.98;;
19969;SDS011;10146;47.754;9.566;2022-11-15T10:58:31;11.40;;;10.40;;
19969;SDS011;10146;47.754;9.566;2022-11-15T11:01:08;11.93;;;10.82;;
19969;SDS011;10146;47.754;9.566;2022-11-15T11:03:36;11.20;;;10.10;;
19969;SDS011;10146;47.754;9.566;2022-11-15T11:06:04;11.02;;;9.98;;
19969;SDS011;10146;47.754;9.566;2022-11-15T11:08:31;11.35;;;10.35;;
19969;SDS011;10146;47.754;9.566;2022-11-15T11:10:58;11.18;;;10.13;;
19969;SDS011;10146;47.754;9.566;2022-11-15T11:13:26;12.50;;;10.80;;
19969;SDS011;10146;47.754;9.566;2022-11-15T11:18:38;11.10;;;10.00;;
19969;SDS011;10146;47.754;9.566;2022-11-15T11:21:13;11.68;;;10.57;;
19969;SDS011;10146;47.754;9.566;2022-11-15T11:32:25;14.45;;;13.05;;
19969;SDS011;10146;47.754;9.566;2022-11-15T11:42:59;14.73;;;13.32;;
19969;SDS011;10146;47.754;9.566;2022-11-15T11:50:34;14.70;;;13.32;;
19969;SDS011;10146;47.754;9.566;2022-11-15T11:55:41;16.10;;;14.45;;
19969;SDS011;10146;47.754;9.566;2022-11-15T12:00:57;16.02;;;14.43;;
19969;SDS011;10146;47.754;9.566;2022-11-15T12:08:51;15.38;;;13.90;;
19969;SDS011;10146;47.754;9.566;2022-11-15T12:11:30;15.02;;;13.63;;
19969;SDS011;10146;47.754;9.566;2022-11-15T12:14:00;15.77;;;14.27;;
19969;SDS011;10146;47.754;9.566;2022-11-15T12:16:29;15.45;;;13.95;;
19969;SDS011;10146;47.754;9.566;2022-11-15T12:18:59;15.63;;;14.07;;
19969;SDS011;10146;47.754;9.566;2022-11-15T12:24:32;16.20;;;14.23;;
19969;SDS011;10146;47.754;9.566;2022-11-15T12:29:57;16.58;;;14.98;;
19969;SDS011;10146;47.754;9.566;2022-11-15T12:32:30;17.27;;;15.60;;
19969;SDS011;10146;47.754;9.566;2022-11-15T12:35:01;18.08;;;16.27;;
19969;SDS011;10146;47.754;9.566;2022-11-15T12:37:48;17.88;;;16.13;;
19969;SDS011;10146;47.754;9.566;2022-11-15T12:40:19;17.52;;;15.93;;
19969;SDS011;10146;47.754;9.566;2022-11-15T12:45:41;17.58;;;15.90;;
19969;SDS011;10146;47.754;9.566;2022-11-15T12:48:45;17.60;;;15.90;;
19969;SDS011;10146;47.754;9.566;2022-11-15T12:51:02;17.58;;;15.98;;
19969;SDS011;10146;47.754;9.566;2022-11-15T12:53:31;17.67;;;16.05;;
19969;SDS011;10146;47.754;9.566;2022-11-15T12:58:52;16.92;;;15.27;;
19969;SDS011;10146;47.754;9.566;2022-11-15T13:06:44;16.83;;;15.13;;
19969;SDS011;10146;47.754;9.566;2022-11-15T13:12:01;17.30;;;15.65;;
19969;SDS011;10146;47.754;9.566;2022-11-15T13:14:55;20.77;;;17.58;;
19969;SDS011;10146;47.754;9.566;2022-11-15T13:17:27;19.13;;;17.25;;
19969;SDS011;10146;47.754;9.566;2022-11-15T13:19:56;16.63;;;14.82;;
19969;SDS011;10146;47.754;9.566;2022-11-15T13:22:23;15.88;;;14.32;;
19969;SDS011;10146;47.754;9.566;2022-11-15T13:33:30;15.70;;;14.20;;
19969;SDS011;10146;47.754;9.566;2022-11-15T13:36:00;15.30;;;13.85;;
19969;SDS011;10146;47.754;9.566;2022-11-15T13:38:29;15.23;;;13.73;;
19969;SDS011;10146;47.754;9.566;2022-11-15T13:40:58;15.48;;;13.88;;
19969;SDS011;10146;47.754;9.566;2022-11-15T13:43:35;14.43;;;13.02;;
19969;SDS011;10146;47.754;9.566;2022-11-15T13:46:05;14.73;;;13.32;;
19969;SDS011;10146;47.754;9.566;2022-11-15T13:48:51;14.55;;;13.05;;
19969;SDS011;10146;47.754;9.566;2022-11-15T13:56:44;16.30;;;14.60;;
19969;SDS011;10146;47.754;9.566;2022-11-15T13:59:31;15.50;;;14.00;;
19969;SDS011;10146;47.754;9.566;2022-11-15T14:02:01;16.88;;;15.10;;
19969;SDS011;10146;47.754;9.566;2022-11-15T14:04:35;15.70;;;14.10;;
19969;SDS011;10146;47.754;9.566;2022-11-15T14:07:02;15.05;;;13.55;;
19969;SDS011;10146;47.754;9.566;2022-11-15T14:09:32;15.88;;;14.20;;
19969;SDS011;10146;47.754;9.566;2022-11-15T14:12:00;15.57;;;14.00;;
19969;SDS011;10146;47.754;9.566;2022-11-15T14:14:28;16.88;;;14.98;;
19969;SDS011;10146;47.754;9.566;2022-11-15T14:16:55;16.42;;;14.75;;
19969;SDS011;10146;47.754;9.566;2022-11-15T14:24:38;17.45;;;15.75;;
19969;SDS011;10146;47.754;9.566;2022-11-15T14:27:21;16.10;;;14.38;;
19969;SDS011;10146;47.754;9.566;2022-11-15T14:29:49;16.90;;;14.43;;
19969;SDS011;10146;47.754;9.566;2022-11-15T14:32:16;16.38;;;14.55;;
19969;SDS011;10146;47.754;9.566;2022-11-15T14:34:47;15.65;;;14.05;;
19969;SDS011;10146;47.754;9.566;2022-11-15T14:37:21;16.48;;;14.80;;
19969;SDS011;10146;47.754;9.566;2022-11-15T14:39:49;16.58;;;14.98;;
19969;SDS011;10146;47.754;9.566;2022-11-15T14:42:15;17.48;;;14.65;;
19969;SDS011;10146;47.754;9.566;2022-11-15T14:44:41;16.75;;;15.15;;
19969;SDS011;10146;47.754;9.566;2022-11-15T14:47:07;17.15;;;15.35;;
19969;SDS011;10146;47.754;9.566;2022-11-15T14:49:33;17.10;;;15.30;;
19969;SDS011;10146;47.754;9.566;2022-11-15T14:51:58;17.67;;;15.80;;
19969;SDS011;10146;47.754;9.566;2022-11-15T14:54:24;16.95;;;15.32;;
19969;SDS011;10146;47.754;9.566;2022-11-15T14:56:49;17.45;;;15.32;;
19969;SDS011;10146;47.754;9.566;2022-11-15T14:59:15;16.92;;;15.23;;
19969;SDS011;10146;47.754;9.566;2022-11-15T15:01:40;17.30;;;15.60;;
19969;SDS011;10146;47.754;9.566;2022-11-15T15:04:06;17.52;;;15.70;;
19969;SDS011;10146;47.754;9.566;2022-11-15T15:06:33;17.90;;;16.10;;
19969;SDS011;10146;47.754;9.566;2022-11-15T15:08:59;18.27;;;16.48;;
19969;SDS011;10146;47.754;9.566;2022-11-15T15:11:28;19.35;;;16.95;;
19969;SDS011;10146;47.754;9.566;2022-11-15T15:13:55;17.55;;;15.85;;
19969;SDS011;10146;47.754;9.566;2022-11-15T15:16:23;17.92;;;16.15;;
19969;SDS011;10146;47.754;9.566;2022-11-15T15:18:49;19.42;;;17.42;;
19969;SDS011;10146;47.754;9.566;2022-11-15T15:21:22;19.17;;;17.23;;
19969;SDS011;10146;47.754;9.566;2022-11-15T15:23:50;19.05;;;17.08;;
19969;SDS011;10146;47.754;9.566;2022-11-15T15:26:16;19.48;;;17.52;;
19969;SDS011;10146;47.754;9.566;2022-11-15T15:28:41;20.25;;;18.17;;
19969;SDS011;10146;47.754;9.566;2022-11-15T15:31:08;19.13;;;17.02;;
19969;SDS011;10146;47.754;9.566;2022-11-15T15:33:34;20.17;;;17.98;;
19969;SDS011;10146;47.754;9.566;2022-11-15T15:36:00;18.30;;;16.45;;
19969;SDS011;10146;47.754;9.566;2022-11-15T15:38:26;20.27;;;15.75;;
19969;SDS011;10146;47.754;9.566;2022-11-15T15:40:51;18.55;;;16.52;;
19969;SDS011;10146;47.754;9.566;2022-11-15T15:43:17;17.15;;;15.45;;
19969;SDS011;10146;47.754;9.566;2022-11-15T15:45:43;17.80;;;14.95;;
19969;SDS011;10146;47.754;9.566;2022-11-15T15:48:13;16.88;;;14.90;;
19969;SDS011;10146;47.754;9.566;2022-11-15T15:50:41;15.77;;;14.13;;
19969;SDS011;10146;47.754;9.566;2022-11-15T15:53:10;17.05;;;14.82;;
19969;SDS011;10146;47.754;9.566;2022-11-15T15:55:37;18.15;;;15.00;;
19969;SDS011;10146;47.754;9.566;2022-11-15T15:58:03;14.35;;;12.95;;
19969;SDS011;10146;47.754;9.566;2022-11-15T16:00:30;15.63;;;14.02;;
19969;SDS011;10146;47.754;9.566;2022-11-15T16:02:58;17.95;;;12.68;;
19969;SDS011;10146;47.754;9.566;2022-11-15T16:05:24;14.75;;;13.30;;
19969;SDS011;10146;47.754;9.566;2022-11-15T16:07:49;13.77;;;12.00;;
19969;SDS011;10146;47.754;9.566;2022-11-15T16:12:51;15.07;;;12.80;;
19969;SDS011;10146;47.754;9.566;2022-11-15T16:15:18;14.77;;;13.10;;
19969;SDS011;10146;47.754;9.566;2022-11-15T16:17:49;14.70;;;13.20;;
19969;SDS011;10146;47.754;9.566;2022-11-15T16:22:54;14.48;;;12.93;;
19969;SDS011;10146;47.754;9.566;2022-11-15T16:25:19;13.80;;;12.13;;
19969;SDS011;10146;47.754;9.566;2022-11-15T16:27:45;13.20;;;11.90;;
19969;SDS011;10146;47.754;9.566;2022-11-15T16:30:15;13.18;;;11.60;;
19969;SDS011;10146;47.754;9.566;2022-11-15T16:32:42;12.82;;;11.38;;
19969;SDS011;10146;47.754;9.566;2022-11-15T16:35:11;14.10;;;11.93;;
19969;SDS011;10146;47.754;9.566;2022-11-15T16:37:38;13.18;;;11.82;;
19969;SDS011;10146;47.754;9.566;2022-11-15T16:40:26;13.68;;;12.23;;
19969;SDS011;10146;47.754;9.566;2022-11-15T16:42:53;15.52;;;12.63;;
19969;SDS011;10146;47.754;9.566;2022-11-15T16:45:20;13.60;;;12.20;;